Time;durP1;ratioP1;P1;durP2;ratioP2;P2;SDS_P1;SDS_P2;PMS_P1;PMS_P2;Temp;Humidity;BMP_temperature;BMP_pressure;BME280_temperature;BME280_humidity;BME280_pressure;Samples;Min_cycle;Max_cycle;Signal;HPM_P1;HPM_P2
2022/03/07 00:01:40;;;;;;;24.53;13.60;;;;;;;-0.65;67.31;99097.16;5014436;28;20224;-59
2022/03/07 00:04:06;;;;;;;32.47;15.17;;;;;;;-0.64;66.99;99093.84;5011633;28;20446;-58
2022/03/07 00:06:31;;;;;;;30.13;14.80;;;;;;;-0.69;66.81;99090.31;5010948;28;20037;-55
2022/03/07 00:08:57;;;;;;;25.73;12.87;;;;;;;-0.56;66.91;99097.47;5014902;28;20049;-56
2022/03/07 00:11:22;;;;;;;25.47;14.40;;;;;;;-0.55;66.97;99097.50;5015128;28;20038;-55
2022/03/07 00:13:48;;;;;;;27.47;14.57;;;;;;;-0.54;66.43;99094.19;5014982;28;20044;-55
2022/03/07 00:16:13;;;;;;;25.47;14.13;;;;;;;-0.67;67.03;99093.72;5017658;28;20068;-59
2022/03/07 00:18:39;;;;;;;27.07;14.17;;;;;;;-0.64;66.99;99096.38;5012569;28;20096;-58
2022/03/07 00:21:06;;;;;;;25.90;13.03;;;;;;;-0.65;66.70;99090.47;5010644;28;20046;-57
2022/03/07 00:23:31;;;;;;;26.00;14.27;;;;;;;-0.69;67.26;99097.88;5011779;28;20061;-58
2022/03/07 00:25:57;;;;;;;31.10;13.13;;;;;;;-0.75;67.46;99100.16;5012548;28;20041;-58
2022/03/07 00:28:22;;;;;;;24.87;13.40;;;;;;;-0.72;68.07;99100.28;5013526;28;20068;-58
2022/03/07 00:30:48;;;;;;;28.70;14.90;;;;;;;-0.77;67.54;99089.22;5015900;28;20042;-59
2022/03/07 00:33:16;;;;;;;32.10;15.67;;;;;;;-0.84;68.06;99104.91;5012485;28;20042;-56
2022/03/07 00:35:42;;;;;;;28.00;13.97;;;;;;;-0.73;68.08;99101.09;5013541;28;20116;-56
2022/03/07 00:38:07;;;;;;;27.97;14.07;;;;;;;-0.68;67.57;99107.13;5014222;28;20157;-57
2022/03/07 00:40:33;;;;;;;24.33;12.63;;;;;;;-0.74;67.36;99101.88;5009457;28;20495;-58
2022/03/07 00:42:59;;;;;;;28.33;13.73;;;;;;;-0.76;67.69;99108.53;5010216;28;20127;-59
2022/03/07 00:45:24;;;;;;;30.20;14.43;;;;;;;-0.78;67.21;99100.94;5011089;28;20041;-58
2022/03/07 00:47:50;;;;;;;27.60;13.67;;;;;;;-0.80;67.12;99091.59;5012502;28;20164;-55
2022/03/07 00:50:15;;;;;;;28.33;14.43;;;;;;;-0.89;67.79;99092.16;5012719;28;20037;-55
2022/03/07 00:52:41;;;;;;;26.33;13.13;;;;;;;-0.86;67.74;99093.94;5011940;28;20128;-58
2022/03/07 00:55:08;;;;;;;27.77;14.27;;;;;;;-0.89;68.18;99091.31;5012457;28;20042;-56
2022/03/07 00:57:34;;;;;;;22.50;12.73;;;;;;;-0.99;68.78;99096.06;5014514;28;20132;-57
2022/03/07 00:59:59;;;;;;;27.47;13.30;;;;;;;-0.94;69.37;99092.03;5010609;28;20953;-58
2022/03/07 01:02:25;;;;;;;25.63;12.47;;;;;;;-0.98;69.57;99097.72;5009143;28;20064;-56
2022/03/07 01:04:50;;;;;;;28.43;14.67;;;;;;;-1.00;69.64;99089.28;5018460;28;20030;-58
2022/03/07 01:07:16;;;;;;;24.57;12.20;;;;;;;-1.00;70.04;99090.94;5014439;28;20093;-57
2022/03/07 01:09:41;;;;;;;29.37;13.70;;;;;;;-1.08;70.57;99092.34;5009871;28;20120;-57
2022/03/07 01:12:07;;;;;;;24.23;13.70;;;;;;;-1.04;71.29;99081.59;5010413;28;20096;-53
2022/03/07 01:14:33;;;;;;;32.10;15.40;;;;;;;-1.02;71.19;99085.84;5013913;28;20358;-58
2022/03/07 01:16:58;;;;;;;25.97;14.23;;;;;;;-1.10;71.72;99083.88;5016434;28;20045;-57
2022/03/07 01:19:24;;;;;;;28.57;14.10;;;;;;;-1.15;71.56;99081.25;5011695;28;20054;-53
2022/03/07 01:21:51;;;;;;;27.87;12.47;;;;;;;-1.09;71.91;99078.06;5012570;28;20050;-55
2022/03/07 01:24:17;;;;;;;27.27;13.60;;;;;;;-1.10;72.22;99069.66;5014608;28;20069;-55
2022/03/07 01:26:43;;;;;;;29.33;14.27;;;;;;;-1.18;72.64;99072.72;5014000;28;20124;-56
2022/03/07 01:29:08;;;;;;;29.47;15.40;;;;;;;-1.20;73.26;99072.69;5011281;28;20641;-57
2022/03/07 01:31:34;;;;;;;31.30;13.40;;;;;;;-1.16;72.63;99068.59;5014685;28;20803;-57
2022/03/07 01:33:59;;;;;;;33.37;13.93;;;;;;;-1.16;73.07;99071.13;5017424;28;20513;-57
2022/03/07 01:36:24;;;;;;;34.67;15.60;;;;;;;-1.19;72.90;99071.03;5010304;28;20127;-58
2022/03/07 01:38:50;;;;;;;31.07;15.20;;;;;;;-1.26;73.47;99066.56;5010505;28;20034;-57
2022/03/07 01:41:15;;;;;;;34.17;16.03;;;;;;;-1.30;73.90;99063.09;4969193;28;1203648;-58
2022/03/07 01:43:41;;;;;;;31.10;14.43;;;;;;;-1.35;74.69;99073.78;5016534;28;20056;-55
2022/03/07 01:46:08;;;;;;;31.57;14.30;;;;;;;-1.42;75.76;99067.69;5016082;28;20086;-55
2022/03/07 01:48:35;;;;;;;28.23;13.53;;;;;;;-1.34;75.44;99062.94;5012257;28;20042;-58
2022/03/07 01:51:00;;;;;;;24.87;13.97;;;;;;;-1.46;75.78;99071.78;5012880;28;20136;-57
2022/03/07 01:53:26;;;;;;;28.00;14.70;;;;;;;-1.45;75.85;99078.53;5014947;28;20176;-58
2022/03/07 01:55:51;;;;;;;30.37;14.33;;;;;;;-1.48;76.04;99072.50;5010580;28;20123;-56
2022/03/07 01:58:17;;;;;;;30.80;15.10;;;;;;;-1.54;76.26;99072.31;5010243;28;20045;-57
2022/03/07 02:00:42;;;;;;;28.53;13.63;;;;;;;-1.52;76.56;99075.72;5012733;28;20037;-57
2022/03/07 02:03:08;;;;;;;27.30;14.27;;;;;;;-1.49;76.65;99076.69;5014228;28;20038;-57
2022/03/07 02:05:33;;;;;;;35.33;16.60;;;;;;;-1.53;77.55;99066.47;5014409;28;20046;-58
2022/03/07 02:07:59;;;;;;;28.13;14.70;;;;;;;-1.58;77.53;99071.34;5011896;28;20092;-56
2022/03/07 02:10:28;;;;;;;30.13;15.37;;;;;;;-1.58;78.04;99076.38;5012974;28;21099;-55
2022/03/07 02:12:54;;;;;;;34.67;15.03;;;;;;;-1.66;78.50;99072.72;5014551;28;20111;-56
2022/03/07 02:15:19;;;;;;;29.33;15.20;;;;;;;-1.61;78.27;99068.69;5011319;28;20041;-57
2022/03/07 02:17:45;;;;;;;34.10;14.77;;;;;;;-1.63;78.17;99072.84;5012870;28;20041;-57
2022/03/07 02:20:12;;;;;;;34.30;16.63;;;;;;;-1.73;79.10;99064.88;5019456;28;20457;-56
2022/03/07 02:22:37;;;;;;;30.97;14.67;;;;;;;-1.66;79.44;99071.88;5018439;28;20088;-55
2022/03/07 02:25:03;;;;;;;33.93;15.57;;;;;;;-1.77;79.81;99063.06;5014004;28;20129;-57
2022/03/07 02:27:29;;;;;;;32.37;15.43;;;;;;;-1.61;79.59;99067.88;5012414;28;20150;-59
2022/03/07 02:29:54;;;;;;;33.97;15.53;;;;;;;-1.66;79.45;99065.19;5012877;28;20499;-55
2022/03/07 02:32:21;;;;;;;29.37;17.00;;;;;;;-1.62;78.99;99069.53;5017264;28;20542;-56
2022/03/07 02:34:47;;;;;;;35.17;16.47;;;;;;;-1.65;79.32;99068.53;5012801;28;20144;-57
2022/03/07 02:37:13;;;;;;;36.60;17.23;;;;;;;-1.69;80.42;99076.75;5014862;28;20042;-57
2022/03/07 02:39:38;;;;;;;31.33;15.53;;;;;;;-1.74;80.68;99064.03;5020667;28;20049;-56
2022/03/07 02:42:04;;;;;;;31.50;16.47;;;;;;;-1.76;81.24;99069.81;5016623;28;20129;-55
2022/03/07 02:44:29;;;;;;;36.50;16.83;;;;;;;-1.77;81.90;99063.06;5012673;28;20049;-57
2022/03/07 02:46:55;;;;;;;31.80;15.30;;;;;;;-1.79;82.30;99069.72;5015461;28;20045;-56
2022/03/07 02:49:20;;;;;;;34.97;15.20;;;;;;;-1.85;83.09;99077.88;5017320;28;20387;-57
2022/03/07 02:51:46;;;;;;;36.33;17.67;;;;;;;-1.87;83.66;99077.81;5020988;28;20056;-56
2022/03/07 02:54:11;;;;;;;33.13;14.97;;;;;;;-1.82;83.93;99085.50;5011959;28;20037;-57
2022/03/07 02:56:37;;;;;;;33.80;15.47;;;;;;;-1.81;84.45;99079.69;5014409;28;20100;-58
2022/03/07 02:59:03;;;;;;;32.90;15.13;;;;;;;-1.67;83.54;99082.72;5016919;28;20034;-56
2022/03/07 03:01:28;;;;;;;30.50;15.23;;;;;;;-1.73;83.35;99079.97;5015772;28;20048;-53
2022/03/07 03:03:54;;;;;;;36.17;17.30;;;;;;;-1.79;84.49;99082.28;5014673;28;20101;-59
2022/03/07 03:06:19;;;;;;;35.43;16.67;;;;;;;-1.85;84.92;99082.91;5015866;28;20416;-57
2022/03/07 03:08:45;;;;;;;36.87;16.97;;;;;;;-1.81;85.53;99071.28;5015501;28;20038;-55
2022/03/07 03:11:11;;;;;;;38.70;16.73;;;;;;;-1.79;84.94;99070.56;5013143;28;20049;-56
2022/03/07 03:13:37;;;;;;;39.60;17.57;;;;;;;-1.62;84.09;99079.59;5012439;28;20034;-56
2022/03/07 03:16:03;;;;;;;43.93;19.63;;;;;;;-1.66;84.33;99079.41;5015233;28;20087;-52
2022/03/07 03:18:28;;;;;;;38.93;17.93;;;;;;;-1.60;84.30;99087.16;5017394;28;20523;-59
2022/03/07 03:20:53;;;;;;;36.23;18.63;;;;;;;-1.58;84.79;99085.56;5014381;28;20057;-56
2022/03/07 03:23:20;;;;;;;36.30;17.37;;;;;;;-1.55;85.00;99084.00;5014120;28;20120;-58
2022/03/07 03:25:46;;;;;;;41.23;18.87;;;;;;;-1.58;85.87;99080.53;5017303;28;20069;-57
2022/03/07 03:28:12;;;;;;;36.63;17.63;;;;;;;-1.61;86.58;99077.94;5019479;28;20120;-57
2022/03/07 03:30:37;;;;;;;34.10;16.33;;;;;;;-1.55;86.34;99073.09;5015511;28;20048;-56
2022/03/07 03:33:03;;;;;;;33.83;17.87;;;;;;;-1.52;85.81;99078.22;5011607;28;20041;-53
2022/03/07 03:35:29;;;;;;;40.30;19.80;;;;;;;-1.50;86.52;99076.63;5016625;28;20052;-56
2022/03/07 03:37:55;;;;;;;36.97;19.10;;;;;;;-1.57;86.75;99072.22;5016625;28;20037;-56
2022/03/07 03:40:20;;;;;;;40.57;18.00;;;;;;;-1.49;86.71;99080.88;5015773;28;20060;-57
2022/03/07 03:42:46;;;;;;;43.53;19.17;;;;;;;-1.54;86.55;99062.25;5011955;28;20057;-58
2022/03/07 03:45:12;;;;;;;29.80;15.83;;;;;;;-1.50;86.37;99085.03;5013542;28;20632;-56
2022/03/07 03:47:39;;;;;;;36.87;16.73;;;;;;;-1.50;87.19;99084.19;5013647;28;20111;-58
2022/03/07 03:50:07;;;;;;;39.77;18.00;;;;;;;-1.46;87.08;99083.47;5010805;28;20073;-57
2022/03/07 03:52:33;;;;;;;38.90;18.20;;;;;;;-1.50;87.08;99084.19;5012002;28;20042;-55
2022/03/07 03:54:58;;;;;;;44.47;19.50;;;;;;;-1.49;87.26;99086.75;5014548;28;20045;-57
2022/03/07 03:57:24;;;;;;;40.60;18.67;;;;;;;-1.53;87.58;99086.59;5014355;28;20495;-52
2022/03/07 03:59:50;;;;;;;46.37;19.87;;;;;;;-1.55;87.37;99076.47;5012269;28;20111;-56
2022/03/07 04:02:16;;;;;;;39.20;19.17;;;;;;;-1.52;87.09;99083.25;5011394;28;20037;-56
2022/03/07 04:04:42;;;;;;;40.80;19.03;;;;;;;-1.53;87.61;99089.09;5014200;28;20129;-57
2022/03/07 04:07:07;;;;;;;37.83;17.67;;;;;;;-1.56;88.12;99094.84;5013676;28;20065;-54
2022/03/07 04:09:33;;;;;;;39.90;19.90;;;;;;;-1.64;88.12;99100.41;5012279;28;20042;-58
2022/03/07 04:11:59;;;;;;;40.93;16.77;;;;;;;-1.61;88.82;99096.34;5015494;28;20065;-55
2022/03/07 04:14:25;;;;;;;37.00;18.20;;;;;;;-1.58;88.02;99093.09;5015636;28;20142;-58
2022/03/07 04:16:50;;;;;;;42.87;19.63;;;;;;;-1.58;88.71;99090.59;5013392;28;20124;-59
2022/03/07 04:19:16;;;;;;;39.13;18.87;;;;;;;-1.66;88.74;99086.94;5011937;28;20052;-56
2022/03/07 04:21:43;;;;;;;42.53;19.07;;;;;;;-1.66;89.18;99104.53;5013014;28;20056;-58
2022/03/07 04:24:10;;;;;;;39.17;17.43;;;;;;;-1.54;89.11;99097.44;5015908;28;20068;-56
2022/03/07 04:26:36;;;;;;;34.60;17.10;;;;;;;-1.59;89.32;99096.41;5015342;28;20480;-56
2022/03/07 04:29:08;;;;;;;39.63;18.63;;;;;;;-1.64;89.55;99103.78;5010762;28;20046;-57
2022/03/07 04:31:41;;;;;;;37.37;17.17;;;;;;;-1.62;89.94;99106.38;5013228;28;20042;-58
2022/03/07 04:34:08;;;;;;;40.37;19.23;;;;;;;-1.61;90.02;99100.53;5017652;28;20042;-56
2022/03/07 04:36:35;;;;;;;42.93;17.80;;;;;;;-1.62;90.11;99104.72;5014928;28;20033;-55
2022/03/07 04:39:01;;;;;;;39.70;18.37;;;;;;;-1.66;90.35;99097.00;5009780;28;20955;-57
2022/03/07 04:41:27;;;;;;;37.73;16.93;;;;;;;-1.64;90.73;99097.91;5012435;28;20072;-54
2022/03/07 04:43:52;;;;;;;43.97;20.93;;;;;;;-1.75;91.15;99100.03;5013964;28;20419;-56
2022/03/07 04:46:18;;;;;;;38.77;16.87;;;;;;;-1.77;91.53;99094.09;5013353;28;20049;-55
2022/03/07 04:48:43;;;;;;;39.43;16.90;;;;;;;-1.69;91.85;99104.41;5013897;28;20559;-57
2022/03/07 04:51:09;;;;;;;36.70;16.30;;;;;;;-1.67;91.14;99087.75;5015077;28;20056;-56
2022/03/07 04:53:34;;;;;;;43.83;19.40;;;;;;;-1.67;90.27;99090.25;5008936;28;20044;-55
2022/03/07 04:55:59;;;;;;;43.20;19.37;;;;;;;-1.59;89.43;99088.88;5016317;28;20046;-57
2022/03/07 04:58:26;;;;;;;37.93;17.30;;;;;;;-1.66;90.22;99089.47;5009870;28;20046;-55
2022/03/07 05:00:54;;;;;;;43.30;18.77;;;;;;;-1.59;88.87;99099.78;5012006;28;20972;-56
2022/03/07 05:03:21;;;;;;;51.03;22.33;;;;;;;-1.62;87.96;99096.31;5013286;28;20042;-57
2022/03/07 05:05:48;;;;;;;48.00;20.47;;;;;;;-1.64;88.23;99096.25;5010031;28;20106;-56
2022/03/07 05:08:14;;;;;;;41.57;19.53;;;;;;;-1.64;88.84;99098.75;5011132;28;20882;-59
2022/03/07 05:10:39;;;;;;;39.93;18.63;;;;;;;-1.63;87.85;99092.94;5014955;28;20037;-57
2022/03/07 05:13:04;;;;;;;39.30;18.50;;;;;;;-1.58;87.17;99100.66;5014254;28;20099;-58
2022/03/07 05:15:30;;;;;;;39.37;18.87;;;;;;;-1.61;86.84;99103.06;5009863;28;20240;-55
2022/03/07 05:17:56;;;;;;;39.47;19.80;;;;;;;-1.62;86.50;99097.19;5008953;28;20232;-57
2022/03/07 05:20:23;;;;;;;35.63;17.87;;;;;;;-1.64;86.63;99101.28;5012109;28;20077;-57
2022/03/07 05:22:48;;;;;;;42.23;20.30;;;;;;;-1.69;86.61;99109.44;5017479;28;20041;-57
2022/03/07 05:25:16;;;;;;;41.87;18.23;;;;;;;-1.69;86.94;99111.94;5012236;28;20042;-56
2022/03/07 05:27:41;;;;;;;43.33;18.47;;;;;;;-1.68;86.97;99117.03;5015193;28;20064;-57
2022/03/07 05:30:09;;;;;;;37.30;17.97;;;;;;;-1.65;86.63;99113.78;5018582;28;20037;-56
2022/03/07 05:32:34;;;;;;;38.93;17.90;;;;;;;-1.63;87.51;99112.19;5012527;28;20053;-58
2022/03/07 05:35:00;;;;;;;46.47;20.37;;;;;;;-1.60;87.53;99122.34;5011051;28;20120;-57
2022/03/07 05:37:26;;;;;;;42.50;19.70;;;;;;;-1.53;86.28;99119.28;5010472;28;20212;-57
2022/03/07 05:39:52;;;;;;;38.07;18.33;;;;;;;-1.55;86.67;99128.41;5012232;28;20044;-55
2022/03/07 05:42:18;;;;;;;37.17;17.50;;;;;;;-1.56;85.08;99124.16;5012451;28;20092;-58
2022/03/07 05:44:43;;;;;;;40.77;19.13;;;;;;;-1.53;84.48;99126.81;5017068;28;20149;-58
2022/03/07 05:47:09;;;;;;;39.93;17.50;;;;;;;-1.52;84.22;99121.81;5011369;28;20060;-58
2022/03/07 05:49:34;;;;;;;41.93;18.53;;;;;;;-1.60;83.60;99133.25;5011915;28;20073;-58
2022/03/07 05:52:00;;;;;;;38.13;16.90;;;;;;;-1.50;82.89;99127.78;5011367;28;20116;-58
2022/03/07 05:54:26;;;;;;;37.20;15.07;;;;;;;-1.55;83.44;99131.78;5011179;28;20432;-57
2022/03/07 05:56:51;;;;;;;33.53;16.97;;;;;;;-1.56;83.31;99129.19;5012633;28;20042;-56
2022/03/07 05:59:17;;;;;;;35.20;16.73;;;;;;;-1.56;84.02;99129.19;5012930;28;20032;-59
2022/03/07 06:01:43;;;;;;;33.87;15.00;;;;;;;-1.49;82.98;99137.03;5012307;28;20049;-57
2022/03/07 06:04:08;;;;;;;35.67;17.43;;;;;;;-1.50;81.32;99132.81;5012078;28;20065;-58
2022/03/07 06:06:34;;;;;;;34.37;15.23;;;;;;;-1.44;80.92;99134.66;5014686;28;20045;-58
2022/03/07 06:09:00;;;;;;;34.90;16.43;;;;;;;-1.43;80.58;99132.22;5017568;28;20215;-58
2022/03/07 06:11:25;;;;;;;34.30;15.17;;;;;;;-1.43;80.27;99127.19;5013130;28;20041;-56
2022/03/07 06:13:50;;;;;;;30.97;14.83;;;;;;;-1.20;81.90;99130.53;5017729;28;20030;-56
2022/03/07 06:16:16;;;;;;;48.10;19.37;;;;;;;-1.24;79.89;99127.84;5015618;28;20885;-57
2022/03/07 06:18:41;;;;;;;45.27;19.33;;;;;;;-1.28;79.07;99131.06;5016708;28;20040;-58
2022/03/07 06:21:08;;;;;;;48.57;20.77;;;;;;;-1.24;78.64;99123.69;5012970;28;20574;-55
2022/03/07 06:23:34;;;;;;;30.70;16.83;;;;;;;-1.26;78.43;99129.44;5012754;28;20096;-54
2022/03/07 06:25:59;;;;;;;32.13;16.07;;;;;;;-1.25;76.84;99126.13;5015631;28;20505;-59
2022/03/07 06:28:24;;;;;;;32.53;17.33;;;;;;;-1.18;76.85;99128.03;5016147;28;20050;-56
2022/03/07 06:30:50;;;;;;;34.07;14.73;;;;;;;-1.15;76.34;99131.56;5013040;28;20042;-58
2022/03/07 06:33:16;;;;;;;30.67;15.50;;;;;;;-1.14;75.73;99130.72;5013030;28;20046;-58
2022/03/07 06:35:42;;;;;;;39.43;17.70;;;;;;;-1.05;76.21;99131.03;5019361;28;20057;-56
2022/03/07 06:38:08;;;;;;;39.17;18.73;;;;;;;-0.94;76.36;99133.94;5018133;28;20811;-59
2022/03/07 06:40:33;;;;;;;32.93;17.10;;;;;;;-0.82;74.35;99134.38;5011185;28;20124;-57
2022/03/07 06:43:00;;;;;;;33.00;16.87;;;;;;;-0.91;75.03;99139.06;5012646;28;20208;-55
2022/03/07 06:45:27;;;;;;;36.03;16.93;;;;;;;-0.86;74.01;99136.72;5018256;28;20068;-58
2022/03/07 06:47:52;;;;;;;35.03;17.00;;;;;;;-0.88;74.91;99143.34;5018338;28;20053;-57
2022/03/07 06:50:18;;;;;;;26.63;15.00;;;;;;;-0.91;75.31;99156.69;5013405;28;20042;-57
2022/03/07 06:52:44;;;;;;;34.60;16.83;;;;;;;-0.97;76.20;99158.97;5012535;28;20837;-57
2022/03/07 06:55:10;;;;;;;36.33;17.20;;;;;;;-1.02;75.97;99151.28;5020411;28;20034;-57
2022/03/07 06:57:35;;;;;;;30.83;16.20;;;;;;;-0.89;75.09;99151.72;5017191;28;20559;-57
2022/03/07 07:00:02;;;;;;;27.67;14.63;;;;;;;-0.83;74.57;99149.41;5012087;28;20033;-59
2022/03/07 07:02:28;;;;;;;32.07;14.53;;;;;;;-0.65;72.19;99150.03;5020541;28;20029;-53
2022/03/07 07:04:54;;;;;;;33.40;15.47;;;;;;;-0.74;70.74;99148.06;5019867;28;20328;-56
2022/03/07 07:07:20;;;;;;;24.73;14.53;;;;;;;-0.78;70.50;99146.25;5016134;28;20071;-56
2022/03/07 07:09:46;;;;;;;27.63;14.63;;;;;;;-0.76;69.71;99146.28;5013522;28;21101;-58
2022/03/07 07:12:12;;;;;;;28.80;16.10;;;;;;;-0.77;69.41;99150.47;5015968;28;20033;-56
2022/03/07 07:14:37;;;;;;;28.37;15.17;;;;;;;-0.82;69.06;99146.94;5019778;28;20049;-57
2022/03/07 07:17:03;;;;;;;26.03;13.57;;;;;;;-0.64;68.61;99160.16;5018648;28;20030;-56
2022/03/07 07:19:28;;;;;;;27.80;14.77;;;;;;;-0.58;67.76;99167.03;5012949;28;20096;-57
2022/03/07 07:21:54;;;;;;;28.70;15.10;;;;;;;-0.52;67.90;99158.03;5017178;28;20038;-57
2022/03/07 07:24:19;;;;;;;21.23;11.60;;;;;;;-0.42;65.65;99170.94;5018855;28;20080;-53
2022/03/07 07:26:45;;;;;;;25.30;13.50;;;;;;;-0.41;64.62;99180.19;5016337;28;20521;-56
2022/03/07 07:29:10;;;;;;;28.13;14.47;;;;;;;-0.32;64.68;99183.00;5015794;28;20033;-57
2022/03/07 07:31:35;;;;;;;25.77;15.37;;;;;;;-0.40;64.99;99187.81;5016756;28;20045;-56
2022/03/07 07:34:01;;;;;;;24.40;13.47;;;;;;;-0.38;65.17;99193.72;5019558;28;20127;-56
2022/03/07 07:36:26;;;;;;;21.57;12.23;;;;;;;-0.38;64.95;99196.25;5020899;28;20042;-57
2022/03/07 07:38:51;;;;;;;24.67;15.10;;;;;;;-0.42;62.53;99201.16;5017801;28;20078;-55
2022/03/07 07:41:17;;;;;;;25.83;13.50;;;;;;;-0.59;62.19;99208.13;5016019;28;20044;-57
2022/03/07 07:43:42;;;;;;;23.73;13.53;;;;;;;-0.15;66.71;99195.34;5016795;28;20052;-56
2022/03/07 07:46:08;;;;;;;27.10;14.50;;;;;;;0.27;67.72;99207.56;5014992;28;20030;-53
2022/03/07 07:48:33;;;;;;;28.23;14.30;;;;;;;0.01;63.50;99214.31;5016444;28;20053;-58
2022/03/07 07:50:59;;;;;;;29.33;16.10;;;;;;;-0.02;65.05;99212.56;5021422;28;20119;-56
2022/03/07 07:53:24;;;;;;;25.07;13.80;;;;;;;0.35;67.17;99216.22;5017100;28;20050;-56
2022/03/07 07:55:49;;;;;;;29.27;14.43;;;;;;;0.61;68.63;99225.44;5016989;28;20591;-55
2022/03/07 07:58:15;;;;;;;25.63;14.97;;;;;;;0.51;70.33;99228.50;5015254;28;20033;-58
2022/03/07 08:00:40;;;;;;;25.77;14.47;;;;;;;0.89;70.55;99229.66;5016133;28;20046;-58
2022/03/07 08:03:06;;;;;;;27.83;14.67;;;;;;;0.30;67.74;99235.41;5018451;28;20041;-58
2022/03/07 08:05:31;;;;;;;28.97;15.70;;;;;;;-0.02;72.63;99237.78;5016188;28;20654;-57
2022/03/07 08:07:56;;;;;;;34.60;18.47;;;;;;;-0.53;73.58;99243.59;5012079;28;20142;-57
2022/03/07 08:10:22;;;;;;;26.03;15.17;;;;;;;-0.98;75.72;99236.13;5020346;28;20383;-54
2022/03/07 08:12:47;;;;;;;32.87;15.00;;;;;;;-0.92;76.19;99238.00;5019232;28;20042;-58
2022/03/07 08:15:13;;;;;;;35.13;16.83;;;;;;;-0.90;76.62;99243.97;5013974;28;20050;-56
2022/03/07 08:17:50;;;;;;;21.07;12.77;;;;;;;-0.95;76.89;99241.28;5014770;28;20042;-58
2022/03/07 08:20:20;;;;;;;20.73;12.80;;;;;;;-0.95;79.66;99240.44;5020465;28;20034;-58
2022/03/07 08:22:46;;;;;;;25.13;15.37;;;;;;;-1.15;81.07;99239.72;5017612;28;20268;-55
2022/03/07 08:25:12;;;;;;;28.07;15.27;;;;;;;-1.07;82.71;99245.03;5013570;28;20064;-57
2022/03/07 08:27:38;;;;;;;27.67;13.90;;;;;;;-0.99;84.25;99249.53;5016072;28;20485;-58
2022/03/07 08:30:07;;;;;;;29.47;16.30;;;;;;;-0.94;84.25;99250.56;5017760;28;20033;-57
2022/03/07 08:32:35;;;;;;;31.90;16.10;;;;;;;-0.81;83.08;99238.41;5018550;28;20415;-59
2022/03/07 08:35:00;;;;;;;31.53;15.90;;;;;;;-0.68;78.67;99243.06;5015857;28;20907;-55
2022/03/07 08:37:26;;;;;;;22.60;13.30;;;;;;;-0.74;72.00;99245.38;5018127;28;20049;-57
2022/03/07 08:39:51;;;;;;;22.73;13.80;;;;;;;-0.81;68.78;99241.78;5017658;28;20121;-57
2022/03/07 08:42:16;;;;;;;27.37;13.27;;;;;;;-0.71;66.47;99237.91;5015622;28;20053;-55
2022/03/07 08:44:42;;;;;;;23.80;13.03;;;;;;;-0.73;65.15;99258.00;5014077;28;20851;-54
2022/03/07 08:47:08;;;;;;;30.10;14.63;;;;;;;-0.65;66.52;99245.69;5014227;28;20052;-54
2022/03/07 08:49:33;;;;;;;23.07;13.63;;;;;;;-0.86;70.03;99247.44;5018555;28;20402;-53
2022/03/07 08:51:59;;;;;;;20.83;13.00;;;;;;;-0.91;73.33;99244.75;5017018;28;20551;-57
2022/03/07 08:54:24;;;;;;;26.37;13.60;;;;;;;-0.85;69.44;99231.56;5013882;28;20033;-55
2022/03/07 08:56:49;;;;;;;22.33;13.00;;;;;;;-0.77;64.78;99245.25;5015679;28;20029;-57
2022/03/07 08:59:15;;;;;;;26.53;13.57;;;;;;;-0.36;62.57;99234.94;5016031;28;20088;-55
2022/03/07 09:01:40;;;;;;;19.60;11.93;;;;;;;0.00;60.01;99228.59;5016241;28;20559;-56
2022/03/07 09:04:05;;;;;;;26.63;22.97;;;;;;;0.44;57.89;99235.03;5013220;28;20156;-55
2022/03/07 09:06:31;;;;;;;24.90;19.07;;;;;;;0.68;56.04;99236.59;5014683;28;20545;-56
2022/03/07 09:08:56;;;;;;;23.80;16.60;;;;;;;0.84;54.52;99242.13;5016427;28;20121;-56
2022/03/07 09:11:22;;;;;;;25.07;14.90;;;;;;;0.54;54.58;99240.34;5014643;28;20037;-59
2022/03/07 09:13:47;;;;;;;21.83;11.67;;;;;;;0.27;54.20;99237.84;5015900;28;20128;-57
2022/03/07 09:16:14;;;;;;;24.30;13.10;;;;;;;0.16;54.44;99235.00;5015754;28;20046;-57
2022/03/07 09:18:40;;;;;;;18.07;11.87;;;;;;;0.22;53.75;99241.88;5018181;28;20056;-59
2022/03/07 09:21:06;;;;;;;19.77;12.77;;;;;;;0.26;53.08;99238.63;5013401;28;20045;-57
2022/03/07 09:23:37;;;;;;;22.27;12.13;;;;;;;0.48;52.99;99241.00;5014493;28;20129;-54
2022/03/07 09:26:03;;;;;;;18.87;10.83;;;;;;;0.66;52.32;99250.81;5016097;28;20130;-57
2022/03/07 09:28:28;;;;;;;19.50;12.37;;;;;;;0.05;53.87;99238.81;5014905;28;20041;-54
2022/03/07 09:30:54;;;;;;;21.93;10.87;;;;;;;0.18;54.02;99252.66;5012004;28;20041;-53
2022/03/07 09:33:19;;;;;;;20.13;11.87;;;;;;;0.39;54.80;99244.13;5016838;28;20137;-55
2022/03/07 09:35:44;;;;;;;21.57;12.60;;;;;;;0.33;54.23;99243.94;5021402;28;20072;-56
2022/03/07 09:38:10;;;;;;;17.23;11.20;;;;;;;0.57;53.89;99240.44;5015814;28;20120;-58
2022/03/07 09:40:35;;;;;;;22.10;11.67;;;;;;;0.51;53.45;99228.50;5011079;28;20301;-58
2022/03/07 09:43:01;;;;;;;16.63;10.40;;;;;;;-0.06;55.11;99241.00;5014099;28;20056;-58
2022/03/07 09:45:26;;;;;;;19.33;11.17;;;;;;;-0.13;56.03;99250.84;5015442;28;20069;-58
2022/03/07 09:47:52;;;;;;;23.43;13.13;;;;;;;0.25;54.26;99244.50;5017237;28;20724;-56
2022/03/07 09:50:18;;;;;;;17.87;10.43;;;;;;;0.03;53.70;99242.09;5013785;28;20041;-56
2022/03/07 09:52:45;;;;;;;19.00;11.87;;;;;;;0.11;53.85;99244.06;5014934;28;20046;-55
2022/03/07 09:55:13;;;;;;;17.20;11.40;;;;;;;0.14;53.75;99255.91;5018613;28;20034;-56
2022/03/07 09:57:40;;;;;;;14.20;8.90;;;;;;;0.02;54.51;99250.47;5013692;28;20108;-57
2022/03/07 10:00:07;;;;;;;17.30;11.20;;;;;;;0.07;54.68;99238.88;5012590;28;20042;-55
2022/03/07 10:02:32;;;;;;;18.23;10.87;;;;;;;0.27;53.39;99240.34;5014232;28;20026;-54
2022/03/07 10:05:03;;;;;;;19.73;11.37;;;;;;;0.40;52.74;99244.97;5016005;28;20373;-58
2022/03/07 10:07:29;;;;;;;17.87;11.00;;;;;;;0.03;51.74;99237.06;5013803;28;20738;-56
2022/03/07 10:10:06;;;;;;;18.17;11.33;;;;;;;0.24;51.58;99237.75;5010101;28;20037;-54
2022/03/07 10:12:32;;;;;;;20.90;11.17;;;;;;;0.45;50.48;99236.75;5013212;28;20069;-58
2022/03/07 10:14:57;;;;;;;23.10;13.13;;;;;;;0.54;49.82;99235.31;5011188;28;20034;-56
2022/03/07 10:17:26;;;;;;;19.53;13.33;;;;;;;0.60;49.40;99248.94;5010023;28;20046;-56
2022/03/07 10:20:00;;;;;;;14.60;9.23;;;;;;;0.22;48.77;99249.44;5013670;28;20370;-55
2022/03/07 10:22:28;;;;;;;19.85;11.27;;;;;;;0.27;49.35;99236.16;5013076;28;20148;-57
2022/03/07 10:25:08;;;;;;;13.40;9.50;;;;;;;0.47;48.21;99238.47;5009846;28;20046;-56
2022/03/07 10:27:45;;;;;;;18.23;9.63;;;;;;;0.49;47.95;99230.13;5010292;28;20763;-57
2022/03/07 10:30:15;;;;;;;15.77;9.20;;;;;;;0.51;47.83;99227.66;5012088;28;20042;-56
2022/03/07 10:32:43;;;;;;;15.37;11.03;;;;;;;0.67;46.99;99238.25;5011493;28;20658;-57
2022/03/07 10:35:21;;;;;;;13.23;8.50;;;;;;;0.88;46.19;99231.31;5010762;28;20077;-57
2022/03/07 10:37:46;;;;;;;17.13;10.30;;;;;;;0.77;46.13;99220.03;5013465;28;20049;-57
2022/03/07 10:40:21;;;;;;;12.57;8.67;;;;;;;1.04;45.20;99219.09;5014993;28;20038;-57
2022/03/07 10:42:48;;;;;;;14.37;8.30;;;;;;;1.05;45.15;99225.88;5010960;28;20403;-57
2022/03/07 10:45:15;;;;;;;15.30;14.00;;;;;;;0.50;44.93;99219.22;5009679;28;20495;-55
2022/03/07 10:47:40;;;;;;;15.67;8.60;;;;;;;0.73;45.47;99219.91;5013216;28;20046;-57
2022/03/07 10:50:07;;;;;;;10.57;7.17;;;;;;;1.00;44.49;99209.75;5011693;28;20030;-57
2022/03/07 10:52:41;;;;;;;16.10;14.33;;;;;;;0.85;44.81;99210.16;5013944;28;20048;-57
2022/03/07 10:55:09;;;;;;;12.15;7.78;;;;;;;1.50;44.22;99204.38;5013645;28;20506;-55
2022/03/07 10:57:40;;;;;;;9.70;6.83;;;;;;;1.51;44.48;99200.19;5015762;28;20038;-58
2022/03/07 11:00:22;;;;;;;11.70;7.63;;;;;;;1.37;43.87;99197.28;5015677;28;20038;-56
2022/03/07 11:02:49;;;;;;;22.83;10.37;;;;;;;1.35;44.40;99198.94;5013209;28;20780;-58
2022/03/07 11:05:16;;;;;;;10.67;7.13;;;;;;;1.24;45.14;99202.81;5014461;28;20160;-57
2022/03/07 11:07:46;;;;;;;10.93;7.20;;;;;;;1.41;45.33;99198.22;5015343;28;20045;-58
2022/03/07 11:10:14;;;;;;;7.70;6.53;;;;;;;1.00;45.08;99202.16;5017791;28;20052;-54
2022/03/07 11:12:40;;;;;;;12.63;9.03;;;;;;;1.12;46.00;99192.41;5015876;28;20049;-57
2022/03/07 11:15:09;;;;;;;7.93;6.20;;;;;;;1.05;44.94;99185.47;5011771;28;20041;-57